createdAt,value
2024-02-13T00:00:12.089Z,1.30
2024-02-13T00:03:00.534Z,0.70
2024-02-13T00:05:29.129Z,0.90
2024-02-13T00:07:57.809Z,2.50
2024-02-13T00:10:26.056Z,1.40
2024-02-13T00:12:54.361Z,2.30
2024-02-13T00:15:22.641Z,1.80
2024-02-13T00:17:52.601Z,0.80
2024-02-13T00:20:21.439Z,1.30
2024-02-13T00:22:50.296Z,1.40
2024-02-13T00:25:19.943Z,0.30
2024-02-13T00:27:48.502Z,1.90
2024-02-13T00:30:16.680Z,0.90
2024-02-13T00:32:45.746Z,1.80
2024-02-13T00:35:14.770Z,1.40
2024-02-13T00:37:43.340Z,1.10
2024-02-13T00:40:11.813Z,1.20
2024-02-13T00:42:40.505Z,1.30
2024-02-13T00:45:12.744Z,1.60
2024-02-13T00:47:43.891Z,0.40
2024-02-13T00:50:12.390Z,1.20
2024-02-13T00:52:42.161Z,1.20
2024-02-13T00:55:11.046Z,1.50
2024-02-13T00:57:39.785Z,1.40
2024-02-13T01:00:13.031Z,1.90
2024-02-13T01:02:41.557Z,0.60
2024-02-13T01:05:10.895Z,1.70
2024-02-13T01:07:39.264Z,1.00
2024-02-13T01:10:08.498Z,1.90
2024-02-13T01:12:36.761Z,0.80
2024-02-13T01:15:05.886Z,1.20
2024-02-13T01:17:34.229Z,1.10
2024-02-13T01:20:02.728Z,0.90
2024-02-13T01:22:30.859Z,0.70
2024-02-13T01:24:59.603Z,0.90
2024-02-13T01:27:27.852Z,0.80
2024-02-13T01:29:56.120Z,0.20
2024-02-13T01:32:25.982Z,0.90
2024-02-13T01:34:54.917Z,1.30
2024-02-13T01:37:23.141Z,1.60
2024-02-13T01:39:51.165Z,0.40
2024-02-13T01:42:19.522Z,0.20
2024-02-13T01:44:47.853Z,0.60
2024-02-13T01:47:16.184Z,0.50
2024-02-13T01:49:45.483Z,0.20
2024-02-13T01:52:14.303Z,0.70
2024-02-13T01:54:43.305Z,0.60
2024-02-13T01:57:12.504Z,1.40
2024-02-13T01:59:41.488Z,0.40
2024-02-13T02:02:11.125Z,0.80
2024-02-13T02:04:42.694Z,1.10
2024-02-13T02:07:10.859Z,0.30
2024-02-13T02:09:39.171Z,0.70
2024-02-13T02:12:08.055Z,0.40
2024-02-13T02:14:36.238Z,0.70
2024-02-13T02:17:12.023Z,0.60
2024-02-13T02:19:40.161Z,0.40
2024-02-13T02:22:09.000Z,1.30
2024-02-13T02:24:37.546Z,1.40
2024-02-13T02:27:05.760Z,0.30
2024-02-13T02:29:35.736Z,0.60
2024-02-13T02:32:05.447Z,0.30
2024-02-13T02:34:33.549Z,0.50
2024-02-13T02:37:02.894Z,0.80
2024-02-13T02:39:31.057Z,0.50
2024-02-13T02:41:59.138Z,0.40
2024-02-13T02:44:27.339Z,0.20
2024-02-13T02:46:55.679Z,0.40
2024-02-13T02:49:24.090Z,0.40
2024-02-13T02:51:52.231Z,0.60
2024-02-13T02:54:21.091Z,0.60
2024-02-13T02:56:49.229Z,0.60
2024-02-13T02:59:18.162Z,0.80
2024-02-13T03:01:48.421Z,0.80
2024-02-13T03:04:17.571Z,1.10
2024-02-13T03:06:45.684Z,0.90
2024-02-13T03:09:13.893Z,0.90
2024-02-13T03:11:43.050Z,0.90
2024-02-13T03:14:11.233Z,0.70
2024-02-13T03:16:40.501Z,0.80
2024-02-13T03:19:08.642Z,0.20
2024-02-13T03:21:37.039Z,0.90
2024-02-13T03:24:06.950Z,0.80
2024-02-13T03:26:35.217Z,1.60
2024-02-13T03:29:03.743Z,0.70
2024-02-13T03:31:31.859Z,1.30
2024-02-13T03:34:00.177Z,0.50
2024-02-13T03:36:28.698Z,1.30
2024-02-13T03:39:00.042Z,0.60
2024-02-13T03:41:28.147Z,0.70
2024-02-13T03:43:56.817Z,2.40
2024-02-13T03:46:24.973Z,0.60
2024-02-13T03:48:53.074Z,1.80
2024-02-13T03:51:21.199Z,2.40
2024-02-13T03:53:49.778Z,1.50
2024-02-13T03:56:18.578Z,1.20
2024-02-13T03:58:46.750Z,2.10
2024-02-13T04:01:15.028Z,1.70
2024-02-13T04:03:44.801Z,1.70
2024-02-13T04:06:13.660Z,1.20
2024-02-13T04:08:46.129Z,1.30
2024-02-13T04:11:15.850Z,1.90
2024-02-13T04:13:44.489Z,2.60
2024-02-13T04:16:12.736Z,1.60
2024-02-13T04:18:41.774Z,1.40
2024-02-13T04:21:18.393Z,3.20
2024-02-13T04:23:50.768Z,3.20
2024-02-13T04:26:30.348Z,2.60
2024-02-13T04:29:05.299Z,2.60
2024-02-13T04:31:33.549Z,2.70
2024-02-13T04:34:02.648Z,4.00
2024-02-13T04:36:39.142Z,2.70
2024-02-13T04:39:10.056Z,3.70
2024-02-13T04:41:38.260Z,2.40
2024-02-13T04:44:07.854Z,3.10
2024-02-13T04:46:35.872Z,3.10
2024-02-13T04:49:04.060Z,4.00
2024-02-13T04:51:32.414Z,4.30
2024-02-13T04:54:00.409Z,5.00
2024-02-13T04:56:28.632Z,4.10
2024-02-13T04:58:57.429Z,4.10
2024-02-13T05:01:26.820Z,3.40
2024-02-13T05:03:55.189Z,6.60
2024-02-13T05:06:44.786Z,4.30
2024-02-13T05:09:13.333Z,5.20
2024-02-13T05:11:41.623Z,7.50
2024-02-13T05:14:10.089Z,5.70
2024-02-13T05:16:39.714Z,6.40
2024-02-13T05:19:08.476Z,5.90
2024-02-13T05:21:37.329Z,4.90
2024-02-13T05:24:06.278Z,5.80
2024-02-13T05:26:36.349Z,5.70
2024-02-13T05:29:06.229Z,5.30
2024-02-13T05:31:36.831Z,5.50
2024-02-13T05:34:05.888Z,4.00
2024-02-13T05:36:34.701Z,3.80
2024-02-13T05:39:05.844Z,6.30
2024-02-13T05:41:34.487Z,2.90
2024-02-13T05:44:04.435Z,6.70
2024-02-13T05:46:32.608Z,5.50
2024-02-13T05:49:03.697Z,5.10
2024-02-13T05:51:31.800Z,4.70
2024-02-13T05:54:00.244Z,4.40
2024-02-13T05:56:28.953Z,5.40
2024-02-13T05:59:02.321Z,5.90
2024-02-13T06:01:32.689Z,4.90
2024-02-13T06:04:05.149Z,6.30
2024-02-13T06:06:35.672Z,3.90
2024-02-13T06:09:04.026Z,4.50
2024-02-13T06:11:34.971Z,5.10
2024-02-13T06:14:03.607Z,2.80
2024-02-13T06:16:31.663Z,5.10
2024-02-13T06:18:59.856Z,5.20
2024-02-13T06:21:29.041Z,4.70
2024-02-13T06:23:57.417Z,4.30
2024-02-13T06:26:26.694Z,4.00
2024-02-13T06:28:56.464Z,3.60
2024-02-13T06:31:24.634Z,4.90
2024-02-13T06:33:52.875Z,4.00
2024-02-13T06:36:21.136Z,4.00
2024-02-13T06:38:49.371Z,3.30
2024-02-13T06:41:17.895Z,3.50
2024-02-13T06:43:46.845Z,5.30
2024-02-13T06:46:15.532Z,2.30
2024-02-13T06:48:45.860Z,2.60
2024-02-13T06:51:14.556Z,3.10
2024-02-13T06:53:44.606Z,1.60
2024-02-13T06:56:13.851Z,2.00
2024-02-13T06:58:43.371Z,2.60
2024-02-13T07:01:14.264Z,1.40
2024-02-13T07:03:43.208Z,3.70
2024-02-13T07:06:13.807Z,2.50
2024-02-13T07:08:42.218Z,2.10
2024-02-13T07:11:12.272Z,2.40
2024-02-13T07:13:40.657Z,5.50
2024-02-13T07:16:09.211Z,2.20
2024-02-13T07:18:37.475Z,2.60
2024-02-13T07:21:08.854Z,2.20
2024-02-13T07:23:37.237Z,2.40
2024-02-13T07:26:05.496Z,4.20
2024-02-13T07:28:33.562Z,2.40
2024-02-13T07:31:01.732Z,2.40
2024-02-13T07:33:30.412Z,2.90
2024-02-13T07:36:01.659Z,3.00
2024-02-13T07:38:29.846Z,2.90
2024-02-13T07:40:59.513Z,3.90
2024-02-13T07:43:28.382Z,3.20
2024-02-13T07:45:56.458Z,4.60
2024-02-13T07:48:25.165Z,3.20
2024-02-13T07:50:55.414Z,2.50
2024-02-13T07:53:23.586Z,4.70
2024-02-13T07:55:52.075Z,7.70
2024-02-13T07:58:20.171Z,2.90
2024-02-13T08:00:48.313Z,2.70
2024-02-13T08:03:16.474Z,2.40
2024-02-13T08:05:46.885Z,3.20
2024-02-13T08:08:15.397Z,4.20
2024-02-13T08:10:44.346Z,3.10
2024-02-13T08:13:12.640Z,5.10
2024-02-13T08:15:41.143Z,2.50
2024-02-13T08:18:10.506Z,3.60
2024-02-13T08:20:38.764Z,5.30
2024-02-13T08:23:07.453Z,4.30
2024-02-13T08:25:35.867Z,3.60
2024-02-13T08:28:04.445Z,4.10
2024-02-13T08:30:32.532Z,4.20
2024-02-13T08:33:03.189Z,4.30
2024-02-13T08:35:32.346Z,5.30
2024-02-13T08:38:01.973Z,5.70
2024-02-13T08:40:30.088Z,4.40
2024-02-13T08:42:59.174Z,3.80
2024-02-13T08:45:27.276Z,5.10
2024-02-13T08:47:56.744Z,3.80
2024-02-13T08:50:25.095Z,3.70
2024-02-13T08:52:56.631Z,3.90
2024-02-13T08:55:26.944Z,6.90
2024-02-13T08:57:55.262Z,4.70
2024-02-13T09:00:23.885Z,4.20
2024-02-13T09:02:52.192Z,3.20
2024-02-13T09:05:20.421Z,5.20
2024-02-13T09:07:48.631Z,8.60
2024-02-13T09:10:16.696Z,6.90
2024-02-13T09:12:47.201Z,6.60
2024-02-13T09:15:15.611Z,4.90
2024-02-13T09:17:46.098Z,3.80
2024-02-13T09:20:23.386Z,4.10
2024-02-13T09:22:52.187Z,7.30
2024-02-13T09:25:23.353Z,7.40
2024-02-13T09:27:52.944Z,4.40
2024-02-13T09:30:21.169Z,5.30
2024-02-13T09:32:50.116Z,5.20
2024-02-13T09:35:19.312Z,7.10
2024-02-13T09:37:49.763Z,5.20
2024-02-13T09:40:19.604Z,2.30
2024-02-13T09:42:50.519Z,4.80
2024-02-13T09:45:19.451Z,6.90
2024-02-13T09:47:51.080Z,5.00
2024-02-13T09:50:20.289Z,3.30
2024-02-13T09:52:58.724Z,5.70
2024-02-13T09:55:26.927Z,2.80
2024-02-13T09:57:55.632Z,5.80
2024-02-13T10:00:24.748Z,4.20
2024-02-13T10:02:53.062Z,5.30
2024-02-13T10:05:22.845Z,6.70
2024-02-13T10:07:51.737Z,6.00
2024-02-13T10:10:20.218Z,3.50
2024-02-13T10:12:55.616Z,5.00
2024-02-13T10:15:24.257Z,8.30
2024-02-13T10:17:53.224Z,6.00
2024-02-13T10:20:21.855Z,4.70
2024-02-13T10:22:53.131Z,4.70
2024-02-13T10:25:26.064Z,5.90
2024-02-13T10:27:57.380Z,7.00
2024-02-13T10:30:28.984Z,3.00
2024-02-13T10:33:07.044Z,6.40
2024-02-13T10:35:35.874Z,9.20
2024-02-13T10:38:04.701Z,6.70
2024-02-13T10:40:35.704Z,4.20
2024-02-13T10:43:04.913Z,2.40
2024-02-13T10:45:38.639Z,3.10
2024-02-13T10:48:29.283Z,3.10
2024-02-13T10:51:00.368Z,3.90
2024-02-13T10:53:30.671Z,2.70
2024-02-13T10:55:59.094Z,3.10
2024-02-13T10:58:33.265Z,3.60
2024-02-13T11:01:04.843Z,6.30
2024-02-13T11:03:35.330Z,6.70
2024-02-13T11:06:03.569Z,4.60
2024-02-13T11:08:32.227Z,7.00
2024-02-13T11:11:05.091Z,6.00
2024-02-13T11:13:33.417Z,3.60
2024-02-13T11:16:06.066Z,4.10
2024-02-13T11:18:36.507Z,5.50
2024-02-13T11:21:10.528Z,6.60
2024-02-13T11:23:39.445Z,4.50
2024-02-13T11:26:19.312Z,5.50
2024-02-13T11:28:49.994Z,6.00
2024-02-13T11:31:19.085Z,4.50
2024-02-13T11:34:10.209Z,4.70
2024-02-13T11:36:38.774Z,4.10
2024-02-13T11:39:08.620Z,4.80
2024-02-13T11:41:37.235Z,7.10
2024-02-13T11:44:11.185Z,6.20
2024-02-13T11:46:55.702Z,4.70
2024-02-13T11:49:27.203Z,6.60
2024-02-13T11:51:56.003Z,2.90
2024-02-13T11:54:27.070Z,4.60
2024-02-13T11:56:57.396Z,6.90
2024-02-13T11:59:25.771Z,4.30
2024-02-13T12:01:54.232Z,5.10
2024-02-13T12:04:22.901Z,3.40
2024-02-13T12:06:53.237Z,5.40
2024-02-13T12:09:21.850Z,7.80
2024-02-13T12:11:51.100Z,6.50
2024-02-13T12:14:19.807Z,7.00
2024-02-13T12:16:49.103Z,8.10
2024-02-13T12:19:18.493Z,3.50
2024-02-13T12:21:47.012Z,6.40
2024-02-13T12:24:17.492Z,4.70
2024-02-13T12:26:45.602Z,3.50
2024-02-13T12:29:16.861Z,3.90
2024-02-13T12:31:49.076Z,7.50
2024-02-13T12:34:18.347Z,7.40
2024-02-13T12:36:48.323Z,6.60
2024-02-13T12:39:27.070Z,4.60
2024-02-13T12:41:59.052Z,2.40
2024-02-13T12:44:27.593Z,5.50
2024-02-13T12:46:56.448Z,4.00
2024-02-13T12:49:24.926Z,3.90
2024-02-13T12:51:54.029Z,2.70
2024-02-13T12:54:23.971Z,6.90
2024-02-13T12:56:54.374Z,9.50
2024-02-13T12:59:24.170Z,6.00
2024-02-13T13:01:55.346Z,6.00
2024-02-13T13:04:24.170Z,4.30
2024-02-13T13:06:52.970Z,5.70
2024-02-13T13:09:27.436Z,3.40
2024-02-13T13:11:57.094Z,4.60
2024-02-13T13:14:28.041Z,5.90
2024-02-13T13:16:57.775Z,3.70
2024-02-13T13:19:29.510Z,4.30
2024-02-13T13:21:59.359Z,4.30
2024-02-13T13:24:28.985Z,3.40
2024-02-13T13:26:57.564Z,5.90
2024-02-13T13:29:26.152Z,9.50
2024-02-13T13:31:54.505Z,4.70
2024-02-13T13:34:25.321Z,2.50
2024-02-13T13:36:54.254Z,5.80
2024-02-13T13:39:30.691Z,1.60
2024-02-13T13:42:09.618Z,5.40
2024-02-13T13:44:39.719Z,5.40
2024-02-13T13:47:09.288Z,1.80
2024-02-13T13:49:39.219Z,2.60
2024-02-13T13:52:08.026Z,3.20
2024-02-13T13:54:36.588Z,4.50
2024-02-13T13:57:04.920Z,3.50
2024-02-13T13:59:33.558Z,5.00
2024-02-13T14:02:02.234Z,4.10
2024-02-13T14:04:30.528Z,3.60
2024-02-13T14:06:58.653Z,6.00
2024-02-13T14:09:27.825Z,3.70
2024-02-13T14:11:55.962Z,4.10
2024-02-13T14:14:24.337Z,5.20
2024-02-13T14:16:54.803Z,5.00
2024-02-13T14:19:22.811Z,4.60
2024-02-13T14:21:50.939Z,6.20
2024-02-13T14:24:20.027Z,5.30
2024-02-13T14:26:48.081Z,5.00
2024-02-13T14:29:16.753Z,4.30
2024-02-13T14:31:45.596Z,4.80
2024-02-13T14:34:13.754Z,1.70
2024-02-13T14:36:44.245Z,3.90
2024-02-13T14:39:19.241Z,2.70
2024-02-13T14:41:55.673Z,4.50
2024-02-13T14:44:25.038Z,3.70
2024-02-13T14:46:59.198Z,5.10
2024-02-13T14:49:27.577Z,3.00
2024-02-13T14:51:56.006Z,2.00
2024-02-13T14:54:24.043Z,5.60
2024-02-13T14:56:52.255Z,5.80
2024-02-13T14:59:21.036Z,3.80
2024-02-13T15:01:49.216Z,5.30
2024-02-13T15:04:17.443Z,6.00
2024-02-13T15:06:49.745Z,6.40
2024-02-13T15:09:20.206Z,5.70
2024-02-13T15:11:48.821Z,5.80
2024-02-13T15:14:18.790Z,4.50
2024-02-13T15:16:49.680Z,7.80
2024-02-13T15:19:18.945Z,5.80
2024-02-13T15:21:47.932Z,7.30
2024-02-13T15:24:20.917Z,6.40
2024-02-13T15:26:50.710Z,6.40
2024-02-13T15:29:21.154Z,8.20
2024-02-13T15:31:49.881Z,7.50
2024-02-13T15:34:18.445Z,6.20
2024-02-13T15:37:05.166Z,8.90
2024-02-13T15:39:51.961Z,6.80
2024-02-13T15:42:44.767Z,7.30
2024-02-13T15:45:32.792Z,6.90
2024-02-13T15:48:01.119Z,5.30
2024-02-13T15:50:30.306Z,6.00
2024-02-13T15:52:58.669Z,8.10
2024-02-13T15:55:31.462Z,7.10
2024-02-13T15:57:59.877Z,6.20
2024-02-13T16:00:29.222Z,6.40
2024-02-13T16:02:58.050Z,8.20
2024-02-13T16:05:30.419Z,7.40
2024-02-13T16:07:59.692Z,7.70
2024-02-13T16:10:30.164Z,7.50
2024-02-13T16:12:59.976Z,8.00
2024-02-13T16:15:28.294Z,8.60
2024-02-13T16:17:56.457Z,7.70
2024-02-13T16:20:24.676Z,9.60
2024-02-13T16:22:52.740Z,8.00
2024-02-13T16:25:21.097Z,8.00
2024-02-13T16:27:51.568Z,15.10
2024-02-13T16:30:20.161Z,11.20
2024-02-13T16:32:48.556Z,8.00
2024-02-13T16:35:17.046Z,9.00
2024-02-13T16:37:45.226Z,10.70
2024-02-13T16:40:16.377Z,9.50
2024-02-13T16:42:44.815Z,14.30
2024-02-13T16:45:14.613Z,11.60
2024-02-13T16:47:42.913Z,16.30
2024-02-13T16:50:16.108Z,14.00
2024-02-13T16:52:44.786Z,16.80
2024-02-13T16:55:14.886Z,16.20
2024-02-13T16:57:45.633Z,16.30
2024-02-13T17:00:14.993Z,13.50
2024-02-13T17:02:43.423Z,11.10
2024-02-13T17:05:15.045Z,11.60
2024-02-13T17:07:47.029Z,15.90
2024-02-13T17:10:16.554Z,12.70
2024-02-13T17:12:44.857Z,13.10
2024-02-13T17:15:14.446Z,11.10
2024-02-13T17:17:44.038Z,10.70
2024-02-13T17:20:13.625Z,13.50
2024-02-13T17:22:42.709Z,13.00
2024-02-13T17:25:13.077Z,12.10
2024-02-13T17:27:42.894Z,12.30
2024-02-13T17:30:16.607Z,14.00
2024-02-13T17:32:46.113Z,13.30
2024-02-13T17:35:15.011Z,15.80
2024-02-13T17:37:43.190Z,19.20
2024-02-13T17:40:14.528Z,15.00
2024-02-13T17:42:42.750Z,12.90
2024-02-13T17:45:11.527Z,14.90
2024-02-13T17:47:41.481Z,11.90
2024-02-13T17:50:11.552Z,14.70
2024-02-13T17:52:40.016Z,12.30
2024-02-13T17:55:10.459Z,14.20
2024-02-13T17:57:41.742Z,14.20
2024-02-13T18:00:11.738Z,17.70
2024-02-13T18:02:40.787Z,26.10
2024-02-13T18:05:10.082Z,24.20
2024-02-13T18:07:38.536Z,27.40
2024-02-13T18:10:09.280Z,27.80
2024-02-13T18:12:44.446Z,27.60
2024-02-13T18:15:15.116Z,29.50
2024-02-13T18:17:45.127Z,22.60
2024-02-13T18:20:16.598Z,20.90
2024-02-13T18:22:45.819Z,19.10
2024-02-13T18:25:13.937Z,23.40
2024-02-13T18:27:42.563Z,20.90
2024-02-13T18:30:11.669Z,20.90
2024-02-13T18:32:39.960Z,20.90
2024-02-13T18:35:10.679Z,19.60
2024-02-13T18:37:43.463Z,17.50
2024-02-13T18:40:12.115Z,16.60
2024-02-13T18:42:40.340Z,16.00
2024-02-13T18:45:12.082Z,18.50
2024-02-13T18:47:40.769Z,13.50
2024-02-13T18:50:10.301Z,16.20
2024-02-13T18:52:38.446Z,15.50
2024-02-13T18:55:10.266Z,17.10
2024-02-13T18:57:39.007Z,16.60
2024-02-13T19:00:11.511Z,23.40
2024-02-13T19:02:41.061Z,23.40
2024-02-13T19:05:09.539Z,19.90
2024-02-13T19:07:37.794Z,26.90
2024-02-13T19:10:07.883Z,29.10
2024-02-13T19:12:36.261Z,29.20
2024-02-13T19:15:09.612Z,30.60
2024-02-13T19:17:38.410Z,25.80
2024-02-13T19:20:11.277Z,32.10
2024-02-13T19:22:40.580Z,27.00
2024-02-13T19:25:09.298Z,23.50
2024-02-13T19:27:38.633Z,22.90
2024-02-13T19:30:10.077Z,19.80
2024-02-13T19:32:42.844Z,23.30
2024-02-13T19:35:11.160Z,24.50
2024-02-13T19:37:39.451Z,23.70
2024-02-13T19:40:08.871Z,28.80
2024-02-13T19:42:37.048Z,25.20
2024-02-13T19:45:06.118Z,23.70
2024-02-13T19:47:37.837Z,25.10
2024-02-13T19:50:06.868Z,22.60
2024-02-13T19:52:37.706Z,25.20
2024-02-13T19:55:07.181Z,27.20
2024-02-13T19:57:35.301Z,18.60
2024-02-13T20:00:05.129Z,23.70
2024-02-13T20:02:33.955Z,20.80
2024-02-13T20:05:02.326Z,20.80
2024-02-13T20:07:30.631Z,20.40
2024-02-13T20:09:58.711Z,19.50
2024-02-13T20:12:28.208Z,16.80
2024-02-13T20:14:57.231Z,17.30
2024-02-13T20:17:26.110Z,18.30
2024-02-13T20:19:54.502Z,15.70
2024-02-13T20:22:22.915Z,17.50
2024-02-13T20:24:50.990Z,15.10
2024-02-13T20:27:19.051Z,14.80
2024-02-13T20:29:47.659Z,17.90
2024-02-13T20:32:16.023Z,19.60
2024-02-13T20:34:44.289Z,13.00
2024-02-13T20:37:12.608Z,14.80
2024-02-13T20:39:42.744Z,13.40
2024-02-13T20:42:12.236Z,13.90
2024-02-13T20:44:43.102Z,15.30
2024-02-13T20:47:11.912Z,17.20
2024-02-13T20:49:40.865Z,15.30
2024-02-13T20:52:09.151Z,16.80
2024-02-13T20:54:37.298Z,12.10
2024-02-13T20:57:05.778Z,10.80
2024-02-13T20:59:35.538Z,16.50
2024-02-13T21:02:04.775Z,17.50
2024-02-13T21:04:34.147Z,16.30
2024-02-13T21:07:03.204Z,15.00
2024-02-13T21:09:31.956Z,16.40
2024-02-13T21:12:00.339Z,13.80
2024-02-13T21:14:28.615Z,15.40
2024-02-13T21:16:58.277Z,11.00
2024-02-13T21:19:26.587Z,8.00
2024-02-13T21:22:13.327Z,11.90
2024-02-13T21:24:45.604Z,8.40
2024-02-13T21:27:18.619Z,16.30
2024-02-13T21:29:47.905Z,11.90
2024-02-13T21:32:16.330Z,10.90
2024-02-13T21:34:45.185Z,11.20
2024-02-13T21:37:13.801Z,10.70
2024-02-13T21:39:42.026Z,11.10
2024-02-13T21:42:11.383Z,9.30
2024-02-13T21:44:40.301Z,10.30
2024-02-13T21:47:09.179Z,9.90
2024-02-13T21:49:37.918Z,9.50
2024-02-13T21:52:06.404Z,12.10
2024-02-13T21:54:36.265Z,10.80
2024-02-13T21:57:07.756Z,12.50
2024-02-13T21:59:37.213Z,12.40
2024-02-13T22:02:05.632Z,9.70
2024-02-13T22:04:34.832Z,11.20
2024-02-13T22:07:03.628Z,10.60
2024-02-13T22:09:32.312Z,6.90
2024-02-13T22:12:04.304Z,10.70
2024-02-13T22:14:33.659Z,12.10
2024-02-13T22:17:02.949Z,8.60
2024-02-13T22:19:31.493Z,12.30
2024-02-13T22:21:59.923Z,11.30
2024-02-13T22:24:28.252Z,10.10
2024-02-13T22:26:56.471Z,8.90
2024-02-13T22:29:26.913Z,9.70
2024-02-13T22:31:55.414Z,11.00
2024-02-13T22:34:25.284Z,9.20
2024-02-13T22:36:54.131Z,11.90
2024-02-13T22:39:22.358Z,11.00
2024-02-13T22:41:50.533Z,11.00
2024-02-13T22:44:20.740Z,11.60
2024-02-13T22:46:49.032Z,10.80
2024-02-13T22:49:17.573Z,10.60
2024-02-13T22:51:45.945Z,12.00
2024-02-13T22:54:14.920Z,9.70
2024-02-13T22:56:44.518Z,9.80
2024-02-13T22:59:14.341Z,9.80
2024-02-13T23:01:43.238Z,11.20
2024-02-13T23:04:12.201Z,11.50
2024-02-13T23:06:43.270Z,12.60
2024-02-13T23:09:15.061Z,11.60
2024-02-13T23:11:45.747Z,11.30
2024-02-13T23:14:15.625Z,10.50
2024-02-13T23:16:43.877Z,12.40
2024-02-13T23:19:12.226Z,10.70
2024-02-13T23:21:40.511Z,10.20
2024-02-13T23:24:09.609Z,13.10
2024-02-13T23:26:41.610Z,11.40
2024-02-13T23:29:10.326Z,10.10
2024-02-13T23:31:39.615Z,11.60
2024-02-13T23:34:10.959Z,11.60
2024-02-13T23:36:40.624Z,13.20
2024-02-13T23:39:12.556Z,10.70
2024-02-13T23:41:41.786Z,12.30
2024-02-13T23:44:11.092Z,10.30
2024-02-13T23:46:39.208Z,12.40
2024-02-13T23:49:08.222Z,12.80
2024-02-13T23:51:38.271Z,9.90
2024-02-13T23:54:06.528Z,11.90
2024-02-13T23:56:34.959Z,9.00
2024-02-13T23:59:04.335Z,11.20
